Terminal Aerodrome Forecast
Issued by NWS Greer, SC

Home | Current Version | Previous Version | Text Only | Print | Product List | Glossary On
Versions: 1 2 3 4 5 6 7 8 9 10 11 12 13 14 15 16 17 18 19 20 21 22
000
FTUS42 KGSP 300903 AAA
TAFCLT
TAF AMD
KCLT 300903Z 3009/3106 02005KT P6SM VCSH BKN018 OVC060
     FM301500 02009KT P6SM BKN025
     FM301700 02006KT P6SM BKN045 PROB30 3018/3023 4SM -TSRA
      OVC025CB=

USA.gov is the U.S. government's official web portal to all federal, state and local government web resources and services.